Time;durP1;ratioP1;P1;durP2;ratioP2;P2;SDS_P1;SDS_P2;PMS_P1;PMS_P2;Temp;Humidity;BMP_temperature;BMP_pressure;BME280_temperature;BME280_humidity;BME280_pressure;Samples;Min_cycle;Max_cycle;Signal;HPM_P1;HPM_P2
2022/04/14 00:00:48;;;;;;;11.27;7.30;;;;;;;9.43;54.96;100345.66;4469563;32;34866;-72
2022/04/14 00:03:15;;;;;;;9.52;6.55;;;;;;;9.14;56.02;100349.16;4472860;32;33754;-72
2022/04/14 00:05:43;;;;;;;9.35;6.25;;;;;;;9.15;56.10;100348.06;4485359;32;33688;-72
2022/04/14 00:08:10;;;;;;;10.25;6.80;;;;;;;9.02;56.45;100357.16;4485158;32;34059;-72
2022/04/14 00:10:38;;;;;;;12.35;7.30;;;;;;;8.85;56.55;100348.78;4485300;32;33977;-72
2022/04/14 00:13:05;;;;;;;9.25;6.35;;;;;;;8.88;56.65;100342.13;4485493;32;33334;-77
2022/04/14 00:15:33;;;;;;;12.07;6.30;;;;;;;8.46;57.81;100339.16;4480631;32;34791;-76
2022/04/14 00:18:01;;;;;;;10.73;7.03;;;;;;;8.55;57.64;100340.50;4469641;32;34763;-72
2022/04/14 00:20:29;;;;;;;10.68;6.78;;;;;;;9.04;56.13;100336.09;4469707;32;33915;-73
2022/04/14 00:22:56;;;;;;;11.07;6.72;;;;;;;8.78;56.99;100345.31;4469497;32;33956;-71
2022/04/14 00:25:24;;;;;;;10.30;6.62;;;;;;;8.66;57.67;100333.56;4469687;32;33754;-73
2022/04/14 00:27:52;;;;;;;11.80;7.03;;;;;;;8.92;56.81;100344.16;4472781;32;34319;-73
2022/04/14 00:30:19;;;;;;;8.30;6.05;;;;;;;8.72;57.04;100341.63;4484941;32;34064;-73
2022/04/14 00:32:47;;;;;;;10.93;7.10;;;;;;;9.01;56.07;100342.81;4484914;32;33449;-72
2022/04/14 00:35:14;;;;;;;9.93;6.32;;;;;;;8.93;56.07;100344.97;4485209;32;34724;-72
2022/04/14 00:37:42;;;;;;;10.73;6.35;;;;;;;8.51;57.17;100342.00;4484986;32;34194;-72
2022/04/14 00:40:10;;;;;;;9.63;7.15;;;;;;;8.39;57.96;100340.00;4479835;32;34547;-72
2022/04/14 00:42:37;;;;;;;10.52;6.82;;;;;;;8.65;57.04;100342.75;4469346;32;33234;-73
2022/04/14 00:45:06;;;;;;;9.43;6.70;;;;;;;8.85;56.35;100339.84;4468993;32;34080;-72
2022/04/14 00:47:35;;;;;;;11.95;6.90;;;;;;;8.59;56.73;100341.72;4469346;32;35037;-73
2022/04/14 00:50:04;;;;;;;11.40;6.62;;;;;;;7.97;58.50;100346.94;4469310;32;33723;-72
2022/04/14 00:52:31;;;;;;;10.98;6.70;;;;;;;8.22;57.55;100339.69;4476228;32;34191;-73
2022/04/14 00:54:59;;;;;;;10.98;7.32;;;;;;;8.09;57.99;100334.38;4484897;32;33997;-73
2022/04/14 00:57:27;;;;;;;11.07;7.65;;;;;;;8.16;57.80;100331.63;4484703;32;34994;-73
2022/04/14 00:59:54;;;;;;;10.82;6.60;;;;;;;8.30;57.37;100330.50;4484260;32;33897;-73
2022/04/14 01:02:22;;;;;;;11.10;7.15;;;;;;;7.99;58.11;100328.63;4484891;32;33525;-73
2022/04/14 01:04:49;;;;;;;11.55;6.72;;;;;;;8.10;58.05;100335.19;4472974;32;32298;-72
2022/04/14 01:07:17;;;;;;;11.05;6.75;;;;;;;7.93;58.25;100332.22;4469621;32;35032;-72
2022/04/14 01:09:45;;;;;;;10.75;6.93;;;;;;;7.77;59.00;100333.53;4469525;32;33950;-72
2022/04/14 01:12:15;;;;;;;10.02;6.45;;;;;;;8.23;57.74;100335.13;4470941;32;33496;-72
2022/04/14 01:14:42;;;;;;;11.00;6.87;;;;;;;7.80;58.76;100335.81;4472468;32;33581;-73
2022/04/14 01:17:10;;;;;;;9.85;6.75;;;;;;;7.71;58.97;100329.00;4486664;32;34232;-72
2022/04/14 01:19:39;;;;;;;9.27;6.20;;;;;;;8.05;58.22;100330.47;4486695;32;34666;-73
2022/04/14 01:22:11;;;;;;;9.55;6.57;;;;;;;8.16;57.32;100329.78;4486547;32;34080;-72
2022/04/14 01:24:39;;;;;;;10.88;6.93;;;;;;;7.45;59.55;100333.50;4484892;32;33824;-72
2022/04/14 01:27:06;;;;;;;10.05;6.82;;;;;;;7.59;59.44;100331.56;4470776;32;33945;-72
2022/04/14 01:29:34;;;;;;;9.77;6.75;;;;;;;8.20;57.63;100319.34;4471107;32;33919;-72
2022/04/14 01:32:02;;;;;;;10.93;6.50;;;;;;;8.22;57.17;100320.78;4470880;32;33404;-72
2022/04/14 01:34:30;;;;;;;9.48;6.18;;;;;;;8.05;57.84;100329.63;4470289;32;34581;-72
2022/04/14 01:37:00;;;;;;;9.73;6.22;;;;;;;7.36;59.71;100329.34;4473358;32;33881;-72
2022/04/14 01:39:28;;;;;;;9.77;6.70;;;;;;;7.62;59.25;100331.09;4486630;32;33596;-73
2022/04/14 01:41:55;;;;;;;9.52;6.15;;;;;;;7.30;60.17;100335.59;4486295;32;33476;-73
2022/04/14 01:44:22;;;;;;;12.10;6.55;;;;;;;7.35;60.08;100333.09;4486390;32;33860;-72
2022/04/14 01:46:50;;;;;;;9.63;6.32;;;;;;;7.39;60.01;100337.03;4486538;32;34164;-73
2022/04/14 01:49:17;;;;;;;9.52;6.35;;;;;;;7.56;59.46;100338.22;4480164;32;33049;-72
2022/04/14 01:51:48;;;;;;;8.77;6.57;;;;;;;7.77;58.94;100330.84;4469461;32;33236;-73
2022/04/14 01:54:16;;;;;;;10.20;6.60;;;;;;;8.04;57.99;100336.09;4470821;32;33726;-73
2022/04/14 01:56:44;;;;;;;11.27;6.75;;;;;;;7.36;59.78;100338.31;4470530;32;34177;-73
2022/04/14 01:59:11;;;;;;;9.20;6.40;;;;;;;7.13;60.48;100337.97;4470828;32;34221;-73
2022/04/14 02:01:39;;;;;;;11.18;6.78;;;;;;;7.59;59.08;100332.37;4470194;32;34450;-72
2022/04/14 02:04:07;;;;;;;10.70;6.32;;;;;;;7.37;59.65;100331.84;4470277;32;33805;-73
2022/04/14 02:06:34;;;;;;;10.80;5.87;;;;;;;7.29;59.71;100333.97;4470553;32;34992;-72
2022/04/14 02:09:03;;;;;;;8.35;6.10;;;;;;;7.30;59.87;100333.75;4470342;32;34186;-73
2022/04/14 02:11:30;;;;;;;9.70;6.35;;;;;;;7.69;59.06;100340.03;4470699;32;33544;-73
2022/04/14 02:13:58;;;;;;;9.98;6.20;;;;;;;7.45;60.03;100338.03;4471194;32;34633;-73
2022/04/14 02:16:25;;;;;;;9.27;6.45;;;;;;;7.35;60.57;100336.63;4469276;32;34891;-72
2022/04/14 02:18:53;;;;;;;9.13;6.45;;;;;;;7.40;59.67;100341.38;4470663;32;33883;-73
2022/04/14 02:21:20;;;;;;;8.93;6.05;;;;;;;7.22;60.22;100342.06;4470553;32;33520;-73
2022/04/14 02:23:48;;;;;;;8.90;6.10;;;;;;;7.41;60.01;100337.66;4476985;32;34648;-72
2022/04/14 02:26:19;;;;;;;9.90;6.28;;;;;;;7.39;59.93;100337.88;4485953;32;35073;-72
2022/04/14 02:28:47;;;;;;;9.05;6.12;;;;;;;7.62;58.92;100339.22;4486057;32;33869;-72
2022/04/14 02:31:14;;;;;;;10.43;6.72;;;;;;;7.54;58.95;100342.19;4484879;32;34018;-72
2022/04/14 02:33:42;;;;;;;9.63;6.15;;;;;;;7.78;58.39;100343.31;4479262;32;34364;-72
2022/04/14 02:36:09;;;;;;;8.48;6.50;;;;;;;7.67;58.38;100341.28;4470260;32;34278;-72
2022/04/14 02:38:37;;;;;;;9.00;6.35;;;;;;;7.60;58.38;100352.09;4470685;32;33853;-73
2022/04/14 02:41:04;;;;;;;9.95;6.72;;;;;;;7.29;59.23;100350.16;4469068;32;32903;-72
2022/04/14 02:43:32;;;;;;;11.38;7.12;;;;;;;6.85;60.51;100349.84;4475145;32;34510;-72
2022/04/14 02:45:59;;;;;;;9.45;6.43;;;;;;;6.68;61.05;100340.53;4485899;32;34074;-73
2022/04/14 02:48:27;;;;;;;9.95;6.82;;;;;;;6.73;61.25;100343.41;4485967;32;34446;-72
2022/04/14 02:50:55;;;;;;;10.77;6.25;;;;;;;7.00;59.95;100338.81;4486008;32;34462;-72
2022/04/14 02:53:22;;;;;;;10.07;6.30;;;;;;;6.87;60.27;100338.81;4481523;32;34724;-72
2022/04/14 02:55:49;;;;;;;9.27;6.30;;;;;;;6.85;60.55;100330.12;4470284;32;34244;-72
2022/04/14 02:58:17;;;;;;;9.35;6.30;;;;;;;6.57;61.81;100334.72;4470042;32;33926;-73
2022/04/14 03:00:44;;;;;;;8.98;6.12;;;;;;;6.93;60.39;100329.88;4470180;32;33138;-73
2022/04/14 03:03:12;;;;;;;9.45;6.57;;;;;;;6.88;60.61;100321.59;4472524;32;34409;-72
2022/04/14 03:05:39;;;;;;;9.40;6.18;;;;;;;7.15;60.44;100333.19;4485738;32;34102;-73
2022/04/14 03:08:07;;;;;;;8.57;6.10;;;;;;;7.16;59.78;100332.13;4485836;32;33849;-72
2022/04/14 03:10:35;;;;;;;10.93;6.35;;;;;;;6.68;61.30;100324.34;4485665;32;33515;-72
2022/04/14 03:13:02;;;;;;;8.20;6.05;;;;;;;6.75;61.19;100334.06;4483253;32;34382;-72
2022/04/14 03:15:31;;;;;;;11.30;7.28;;;;;;;6.58;61.60;100333.66;4470002;32;34240;-72
2022/04/14 03:17:58;;;;;;;10.52;7.22;;;;;;;6.43;62.20;100330.34;4470448;32;34032;-74
2022/04/14 03:20:26;;;;;;;9.75;6.37;;;;;;;6.70;61.35;100336.56;4470217;32;33487;-73
2022/04/14 03:22:55;;;;;;;11.15;6.55;;;;;;;6.73;61.15;100333.44;4472410;32;34624;-73
2022/04/14 03:25:22;;;;;;;9.93;6.32;;;;;;;7.08;59.83;100337.75;4485960;32;34174;-73
2022/04/14 03:27:50;;;;;;;10.90;6.45;;;;;;;7.13;59.61;100337.97;4485150;32;34563;-72
2022/04/14 03:30:18;;;;;;;12.05;6.85;;;;;;;6.61;61.33;100329.75;4485298;32;33391;-75
2022/04/14 03:32:46;;;;;;;9.95;6.10;;;;;;;6.71;60.95;100332.00;4482077;32;34030;-71
2022/04/14 03:35:15;;;;;;;10.20;6.10;;;;;;;6.75;60.77;100327.84;4469948;32;34202;-73
2022/04/14 03:37:43;;;;;;;10.23;5.97;;;;;;;6.15;62.32;100327.84;4468957;32;34360;-75
2022/04/14 03:40:11;;;;;;;10.15;5.87;;;;;;;5.98;62.67;100338.16;4469836;32;33839;-71
2022/04/14 03:42:39;;;;;;;9.15;6.10;;;;;;;6.42;61.29;100338.66;4471597;32;33917;-73
2022/04/14 03:45:07;;;;;;;10.77;6.60;;;;;;;7.05;58.92;100341.69;4485301;32;34198;-73
2022/04/14 03:47:34;;;;;;;8.32;5.72;;;;;;;6.87;59.01;100345.06;4484566;32;34499;-72
2022/04/14 03:50:03;;;;;;;7.05;5.20;;;;;;;6.86;59.03;100345.25;4470904;32;34256;-74
2022/04/14 03:52:30;;;;;;;9.85;6.72;;;;;;;6.65;60.32;100349.84;4470954;32;33905;-73
2022/04/14 03:54:58;;;;;;;10.15;6.28;;;;;;;6.80;59.76;100344.22;4484790;32;35149;-70
2022/04/14 03:57:26;;;;;;;9.65;6.10;;;;;;;6.59;60.54;100348.00;4484428;32;33730;-73
2022/04/14 03:59:53;;;;;;;8.88;6.12;;;;;;;6.00;62.72;100354.97;4485300;32;33070;-71
2022/04/14 04:02:21;;;;;;;9.98;6.22;;;;;;;6.36;61.93;100348.41;4485095;32;34009;-72
2022/04/14 04:04:49;;;;;;;9.80;6.43;;;;;;;6.69;61.21;100353.78;4483905;32;34408;-72
2022/04/14 04:07:16;;;;;;;9.88;6.00;;;;;;;6.60;61.69;100357.72;4485583;32;33821;-71
2022/04/14 04:09:44;;;;;;;9.25;6.00;;;;;;;6.56;62.11;100351.09;4485623;32;33489;-72
2022/04/14 04:12:11;;;;;;;8.10;5.78;;;;;;;6.33;62.71;100352.34;4485457;32;33741;-71
2022/04/14 04:14:39;;;;;;;10.85;6.57;;;;;;;6.51;62.21;100351.72;4469933;32;35015;-72
2022/04/14 04:17:06;;;;;;;8.93;6.32;;;;;;;6.95;60.59;100354.78;4469566;32;33913;-71
2022/04/14 04:19:38;;;;;;;11.20;6.12;;;;;;;7.08;60.05;100354.75;4469802;32;34122;-71
2022/04/14 04:22:06;;;;;;;9.10;6.25;;;;;;;7.06;59.56;100358.72;4469411;32;34902;-71
2022/04/14 04:24:34;;;;;;;10.35;6.00;;;;;;;6.70;60.14;100360.84;4482213;32;34894;-71
2022/04/14 04:27:01;;;;;;;8.85;5.80;;;;;;;6.19;61.61;100353.34;4485043;32;34021;-73
2022/04/14 04:29:28;;;;;;;8.32;5.82;;;;;;;6.33;61.39;100357.72;4485093;32;32766;-69
2022/04/14 04:31:56;;;;;;;8.90;6.20;;;;;;;6.87;60.10;100357.69;4485089;32;33903;-71
2022/04/14 04:34:24;;;;;;;10.38;6.37;;;;;;;7.05;59.16;100357.88;4472098;32;34156;-72
2022/04/14 04:36:51;;;;;;;11.15;7.03;;;;;;;6.80;60.33;100356.88;4469444;32;34634;-73
2022/04/14 04:39:19;;;;;;;9.27;6.05;;;;;;;6.46;61.18;100359.59;4468206;32;33641;-72
2022/04/14 04:41:47;;;;;;;10.52;6.82;;;;;;;6.63;60.36;100357.31;4469511;32;34009;-70
2022/04/14 04:44:14;;;;;;;9.35;6.07;;;;;;;7.06;58.89;100362.25;4479969;32;34172;-72
2022/04/14 04:46:42;;;;;;;8.55;6.40;;;;;;;6.70;60.69;100368.09;4485022;32;34053;-73
2022/04/14 04:49:09;;;;;;;9.65;6.35;;;;;;;6.62;62.61;100366.44;4484841;32;33598;-76
2022/04/14 04:51:37;;;;;;;10.60;6.00;;;;;;;7.38;61.14;100368.59;4483348;32;33703;-72
2022/04/14 04:54:04;;;;;;;9.75;6.62;;;;;;;7.45;60.46;100376.69;4474292;32;35066;-72
2022/04/14 04:56:32;;;;;;;11.32;6.43;;;;;;;7.84;58.92;100371.31;4469341;32;33937;-71
2022/04/14 04:58:59;;;;;;;9.23;6.50;;;;;;;7.99;57.85;100379.97;4468925;32;32956;-72
2022/04/14 05:01:27;;;;;;;10.35;6.30;;;;;;;7.60;58.47;100379.09;4469141;32;33931;-72
2022/04/14 05:03:54;;;;;;;8.77;6.05;;;;;;;7.60;59.28;100381.81;4477414;32;34185;-73
2022/04/14 05:06:23;;;;;;;10.57;5.95;;;;;;;7.93;58.34;100389.78;4481467;31;34017;-70
2022/04/14 05:08:51;;;;;;;13.30;6.60;;;;;;;8.12;57.31;100387.16;4478611;31;33523;-70
2022/04/14 05:11:18;;;;;;;11.00;6.85;;;;;;;7.62;59.71;100389.69;4474755;32;33985;-71
2022/04/14 05:13:45;;;;;;;9.70;6.57;;;;;;;7.84;58.56;100388.38;4480199;31;34171;-71
2022/04/14 05:16:13;;;;;;;12.35;7.00;;;;;;;8.00;57.28;100393.25;4481334;32;34245;-70
2022/04/14 05:18:40;;;;;;;10.18;6.72;;;;;;;8.29;56.65;100395.59;4482832;32;33735;-70
2022/04/14 05:21:08;;;;;;;8.82;6.28;;;;;;;8.70;57.59;100391.59;4476760;32;33656;-70
2022/04/14 05:23:35;;;;;;;10.75;6.30;;;;;;;8.89;57.20;100398.69;4475441;32;35077;-70
2022/04/14 05:26:03;;;;;;;11.63;6.35;;;;;;;9.68;56.51;100398.94;4482860;32;33903;-68
2022/04/14 05:28:30;;;;;;;10.40;6.28;;;;;;;10.27;51.50;100396.47;4483212;32;33291;-69
2022/04/14 05:30:58;;;;;;;13.15;7.15;;;;;;;10.57;50.60;100395.66;4483073;32;34786;-71
2022/04/14 05:33:26;;;;;;;11.80;6.43;;;;;;;10.74;50.82;100395.81;4482587;32;34930;-70
2022/04/14 05:35:53;;;;;;;9.90;6.10;;;;;;;11.71;46.48;100400.72;4483065;32;33734;-71
2022/04/14 05:38:21;;;;;;;10.55;6.05;;;;;;;12.52;45.41;100414.25;4482544;32;33056;-71
2022/04/14 05:40:48;;;;;;;13.62;6.30;;;;;;;13.16;43.05;100411.22;4482691;32;34572;-69
2022/04/14 05:43:20;;;;;;;7.05;4.97;;;;;;;13.70;42.30;100407.91;4482601;32;34210;-71
2022/04/14 05:45:48;;;;;;;7.65;5.65;;;;;;;14.48;39.61;100411.22;4482661;32;33963;-71
2022/04/14 05:48:17;;;;;;;7.07;5.78;;;;;;;14.44;39.93;100420.19;4482679;32;33267;-71
2022/04/14 05:50:46;;;;;;;8.32;5.70;;;;;;;14.95;38.48;100410.56;4483158;32;34683;-71
2022/04/14 05:53:14;;;;;;;9.82;6.05;;;;;;;15.28;38.25;100405.84;4484554;32;33970;-72
2022/04/14 05:55:41;;;;;;;9.45;5.60;;;;;;;15.30;38.39;100403.69;4484911;32;34644;-71
2022/04/14 05:58:09;;;;;;;12.10;7.07;;;;;;;15.68;37.80;100401.72;4485085;32;33167;-70
2022/04/14 06:00:36;;;;;;;9.10;6.07;;;;;;;16.09;37.29;100396.41;4479652;32;33761;-68
2022/04/14 06:03:04;;;;;;;7.85;5.47;;;;;;;16.34;36.99;100403.03;4484681;32;34105;-69
2022/04/14 06:05:33;;;;;;;8.20;5.65;;;;;;;16.54;36.75;100408.56;4484831;32;34704;-70
2022/04/14 06:08:00;;;;;;;7.40;5.28;;;;;;;17.11;34.80;100403.09;4484515;32;34133;-68
2022/04/14 06:10:29;;;;;;;7.40;5.97;;;;;;;17.35;35.81;100406.06;4484131;32;33544;-69
2022/04/14 06:12:56;;;;;;;8.85;6.43;;;;;;;17.91;33.26;100399.59;4484878;32;34130;-68
2022/04/14 06:15:26;;;;;;;8.40;5.65;;;;;;;17.51;33.55;100393.13;4484552;32;34064;-68
2022/04/14 06:17:54;;;;;;;8.27;5.95;;;;;;;18.38;32.30;100392.69;4484785;32;33051;-69
2022/04/14 06:20:21;;;;;;;9.48;5.78;;;;;;;19.34;31.11;100395.75;4484751;32;34042;-69
2022/04/14 06:22:49;;;;;;;9.45;6.30;;;;;;;20.49;30.14;100398.41;4484521;32;33818;-71
2022/04/14 06:25:17;;;;;;;9.05;5.57;;;;;;;21.39;29.88;100400.25;4484879;32;34150;-70
2022/04/14 06:27:45;;;;;;;9.52;5.18;;;;;;;22.21;25.96;100404.91;4484959;32;33351;-67
2022/04/14 06:30:14;;;;;;;9.75;6.47;;;;;;;22.67;24.60;100401.09;4483585;32;35244;-68
2022/04/14 06:32:42;;;;;;;9.38;5.95;;;;;;;22.45;24.79;100392.78;4482419;32;34964;-69
2022/04/14 06:35:15;;;;;;;8.65;5.22;;;;;;;20.97;26.91;100389.13;4484606;32;33976;-68
2022/04/14 06:37:42;;;;;;;12.50;6.22;;;;;;;19.31;28.29;100392.75;4484184;32;34132;-68
2022/04/14 06:40:10;;;;;;;9.27;5.70;;;;;;;19.26;28.05;100382.63;4484754;32;33809;-69
2022/04/14 06:42:59;;;;;;;12.68;5.40;;;;;;;18.76;28.64;100393.78;4484430;32;34169;-70
2022/04/14 06:45:27;;;;;;;9.32;5.78;;;;;;;18.75;30.02;100392.16;4484263;32;33970;-69
2022/04/14 06:47:55;;;;;;;10.75;5.82;;;;;;;19.38;27.81;100385.00;4484513;32;33526;-70
2022/04/14 06:50:22;;;;;;;8.82;5.57;;;;;;;18.45;29.96;100390.47;4484084;32;33925;-70
2022/04/14 06:52:51;;;;;;;9.93;5.65;;;;;;;18.55;29.83;100387.66;4484798;32;34214;-69
2022/04/14 06:55:21;;;;;;;8.65;4.93;;;;;;;19.40;28.23;100391.84;4484355;32;34832;-69
2022/04/14 06:57:51;;;;;;;6.93;4.28;;;;;;;20.03;28.27;100395.53;4483829;32;33544;-68
2022/04/14 07:00:21;;;;;;;6.72;4.60;;;;;;;21.02;25.78;100394.56;4484925;32;33929;-69
2022/04/14 07:02:50;;;;;;;7.93;4.00;;;;;;;21.42;25.51;100389.41;4483602;32;34200;-69
2022/04/14 07:05:18;;;;;;;6.78;3.55;;;;;;;21.55;24.60;100393.31;4484078;32;34734;-70
2022/04/14 07:07:46;;;;;;;6.78;3.80;;;;;;;21.71;24.02;100400.16;4484592;32;34081;-69
2022/04/14 07:10:14;;;;;;;4.65;3.17;;;;;;;22.17;21.71;100392.84;4484196;32;34033;-69
2022/04/14 07:12:42;;;;;;;6.32;4.15;;;;;;;22.43;21.64;100395.06;4483834;32;34040;-71
2022/04/14 07:15:10;;;;;;;8.40;4.18;;;;;;;22.22;21.43;100400.19;4484479;32;33576;-70
2022/04/14 07:17:38;;;;;;;6.37;4.12;;;;;;;21.82;22.07;100394.44;4484241;32;33280;-69
2022/04/14 07:20:09;;;;;;;9.18;3.97;;;;;;;20.62;22.52;100394.09;4483921;32;34632;-69
2022/04/14 07:22:50;;;;;;;7.37;4.07;;;;;;;19.92;23.96;100392.09;4484731;32;33951;-69
2022/04/14 07:25:24;;;;;;;6.57;3.72;;;;;;;19.71;24.40;100379.69;4484417;32;33784;-72
2022/04/14 07:27:52;;;;;;;6.47;3.60;;;;;;;20.69;23.80;100391.81;4484511;32;33439;-70
2022/04/14 07:30:20;;;;;;;7.05;4.18;;;;;;;21.19;21.00;100393.16;4484305;32;33639;-72
2022/04/14 07:32:48;;;;;;;5.07;2.92;;;;;;;20.27;21.40;100393.50;4484466;32;33890;-70
2022/04/14 07:35:18;;;;;;;5.97;3.70;;;;;;;19.17;21.38;100385.19;4484030;32;34616;-72
2022/04/14 07:37:45;;;;;;;6.75;3.62;;;;;;;20.15;23.22;100392.31;4484325;32;33461;-72
2022/04/14 07:40:13;;;;;;;7.15;3.60;;;;;;;20.83;22.87;100391.84;4484417;32;34762;-72
2022/04/14 07:42:42;;;;;;;5.82;3.50;;;;;;;22.03;23.49;100395.66;4484381;32;35012;-71
2022/04/14 07:45:11;;;;;;;7.22;3.90;;;;;;;22.77;22.29;100393.69;4484182;32;34895;-72
2022/04/14 07:47:43;;;;;;;7.32;4.07;;;;;;;22.13;20.23;100400.91;4483976;32;33704;-72
2022/04/14 07:50:12;;;;;;;5.95;3.80;;;;;;;22.71;19.45;100399.31;4482611;32;34776;-72
2022/04/14 07:52:46;;;;;;;5.47;3.62;;;;;;;20.88;20.12;100399.22;4484294;32;34147;-72
2022/04/14 07:55:29;;;;;;;5.55;3.60;;;;;;;21.29;18.72;100398.47;4484332;32;34491;-73
2022/04/14 07:58:01;;;;;;;7.07;3.87;;;;;;;22.20;17.55;100397.75;4483550;32;33427;-72
2022/04/14 08:00:29;;;;;;;4.90;3.22;;;;;;;22.19;18.04;100401.62;4484595;32;33514;-72
2022/04/14 08:03:01;;;;;;;5.97;3.20;;;;;;;22.14;19.72;100390.72;4485033;32;35659;-72
2022/04/14 08:05:36;;;;;;;5.25;3.30;;;;;;;22.55;17.84;100391.72;4479036;32;34870;-68
2022/04/14 08:08:14;;;;;;;4.65;2.60;;;;;;;22.80;18.83;100399.37;4469603;32;33226;-69
2022/04/14 08:10:44;;;;;;;4.28;2.62;;;;;;;22.54;16.14;100393.66;4469511;32;33836;-69
2022/04/14 08:13:12;;;;;;;6.28;3.05;;;;;;;22.40;18.36;100402.03;4469300;32;34191;-69
2022/04/14 08:15:40;;;;;;;7.43;3.00;;;;;;;22.76;18.80;100397.56;4469651;32;34056;-67
2022/04/14 08:18:08;;;;;;;6.45;3.33;;;;;;;21.34;17.66;100392.87;4469351;32;33351;-69
2022/04/14 08:20:39;;;;;;;4.20;2.95;;;;;;;21.84;18.55;100400.47;4467979;32;33996;-69
2022/04/14 08:23:14;;;;;;;5.53;3.20;;;;;;;21.53;17.74;100401.06;4469419;32;33998;-68
2022/04/14 08:25:42;;;;;;;6.28;3.33;;;;;;;21.00;18.22;100407.84;4469461;32;33984;-67
2022/04/14 08:28:30;;;;;;;6.93;4.25;;;;;;;20.80;19.25;100397.97;4469461;32;33445;-69
2022/04/14 08:30:57;;;;;;;6.22;4.15;;;;;;;20.96;20.81;100401.28;4468518;32;33772;-68
2022/04/14 08:33:25;;;;;;;7.75;4.93;;;;;;;21.30;20.00;100391.84;4468959;32;35048;-69
2022/04/14 08:35:53;;;;;;;8.10;5.30;;;;;;;20.56;18.41;100402.72;4468845;32;35058;-69
2022/04/14 08:38:21;;;;;;;6.90;4.40;;;;;;;20.12;19.98;100393.72;4469211;32;33437;-69
2022/04/14 08:40:57;;;;;;;8.02;3.90;;;;;;;20.33;20.93;100394.28;4469008;32;33918;-71
2022/04/14 08:43:49;;;;;;;6.18;3.55;;;;;;;19.85;20.86;100395.19;4469262;32;33952;-70
2022/04/14 08:46:19;;;;;;;6.43;4.35;;;;;;;20.09;20.57;100394.34;4467725;32;33562;-69
2022/04/14 08:48:50;;;;;;;6.28;3.75;;;;;;;19.99;19.68;100394.47;4469087;32;33519;-70
2022/04/14 08:51:20;;;;;;;7.03;3.90;;;;;;;20.15;20.52;100384.88;4468302;32;34678;-71
2022/04/14 08:53:49;;;;;;;8.02;4.32;;;;;;;19.72;21.70;100386.81;4473889;32;34207;-67
2022/04/14 08:56:23;;;;;;;5.30;3.50;;;;;;;19.71;21.39;100390.69;4484679;32;34751;-70
2022/04/14 08:58:53;;;;;;;7.72;3.58;;;;;;;20.05;18.88;100388.59;4483734;32;33368;-69
2022/04/14 09:01:25;;;;;;;5.93;3.15;;;;;;;18.88;21.09;100393.47;4484603;32;33969;-70
2022/04/14 09:03:54;;;;;;;4.57;3.03;;;;;;;19.33;21.37;100393.28;4484860;32;34242;-68
2022/04/14 09:06:23;;;;;;;6.28;2.78;;;;;;;19.91;20.30;100392.38;4484566;32;33755;-68
2022/04/14 09:08:50;;;;;;;6.43;2.90;;;;;;;19.34;20.04;100383.94;4484122;32;34285;-68
2022/04/14 09:11:18;;;;;;;5.10;3.00;;;;;;;19.05;19.98;100398.53;4482841;32;33815;-71
2022/04/14 09:13:46;;;;;;;5.43;3.00;;;;;;;19.51;21.47;100387.03;4484446;32;34289;-70
2022/04/14 09:16:13;;;;;;;7.70;4.25;;;;;;;19.25;20.29;100392.00;4484366;32;34575;-70
2022/04/14 09:18:41;;;;;;;4.62;2.85;;;;;;;19.73;21.10;100397.56;4484377;32;33607;-69
2022/04/14 09:21:08;;;;;;;7.57;3.35;;;;;;;20.35;20.35;100393.97;4484308;32;34693;-70
2022/04/14 09:23:36;;;;;;;4.93;2.62;;;;;;;19.76;19.85;100394.22;4484008;32;33957;-70
2022/04/14 09:26:04;;;;;;;5.70;2.97;;;;;;;19.66;20.45;100386.88;4484793;32;34002;-69
2022/04/14 09:28:32;;;;;;;5.22;3.28;;;;;;;19.59;19.76;100383.66;4486326;32;33763;-69
2022/04/14 09:31:03;;;;;;;5.93;2.95;;;;;;;19.67;22.40;100393.19;4484732;32;33916;-69
2022/04/14 09:33:34;;;;;;;6.40;3.17;;;;;;;19.61;20.04;100386.09;4486052;32;34267;-70
2022/04/14 09:36:08;;;;;;;5.37;2.90;;;;;;;19.26;20.57;100388.12;4486490;32;33842;-70
2022/04/14 09:38:55;;;;;;;4.23;2.50;;;;;;;18.73;19.72;100390.81;4485819;32;33506;-69
2022/04/14 09:41:40;;;;;;;4.82;2.80;;;;;;;19.16;21.33;100383.56;4486521;32;33987;-70
2022/04/14 09:44:12;;;;;;;4.85;2.70;;;;;;;19.57;21.55;100382.31;4486112;32;34101;-71
2022/04/14 09:46:45;;;;;;;4.62;2.67;;;;;;;20.02;20.58;100378.19;4486053;32;34418;-71
2022/04/14 09:49:15;;;;;;;4.65;2.47;;;;;;;20.47;19.52;100375.03;4486296;32;35402;-68
2022/04/14 09:51:45;;;;;;;4.55;2.45;;;;;;;20.48;18.63;100374.72;4485102;32;33973;-70
2022/04/14 09:54:17;;;;;;;3.55;2.17;;;;;;;20.11;19.20;100381.09;4485963;32;35050;-71
2022/04/14 09:56:45;;;;;;;4.10;2.40;;;;;;;20.26;19.45;100372.59;4485884;32;34709;-69
2022/04/14 09:59:15;;;;;;;3.95;2.40;;;;;;;20.25;19.33;100362.69;4486277;32;33712;-68
2022/04/14 10:01:43;;;;;;;6.12;2.80;;;;;;;20.36;19.67;100366.09;4486269;32;33657;-70
2022/04/14 10:04:31;;;;;;;4.82;2.80;;;;;;;18.98;20.72;100368.59;4486151;32;35166;-70
2022/04/14 10:07:09;;;;;;;5.87;2.87;;;;;;;19.38;20.15;100368.50;4485625;32;33885;-71
2022/04/14 10:09:39;;;;;;;5.87;2.75;;;;;;;19.89;20.07;100359.59;4486176;32;34248;-70
2022/04/14 10:12:29;;;;;;;4.80;2.90;;;;;;;20.40;18.15;100364.38;4486294;32;34944;-71
2022/04/14 10:14:56;;;;;;;6.32;2.40;;;;;;;19.27;19.68;100359.53;4486314;32;33985;-71
2022/04/14 10:17:24;;;;;;;5.25;2.95;;;;;;;19.81;20.16;100352.03;4486174;32;34010;-71
2022/04/14 10:19:52;;;;;;;4.47;2.83;;;;;;;19.81;19.70;100355.59;4484591;32;34236;-69
2022/04/14 10:22:20;;;;;;;4.32;2.72;;;;;;;19.96;19.92;100346.31;4486224;32;33788;-70
2022/04/14 10:24:48;;;;;;;6.15;3.03;;;;;;;20.07;19.54;100352.50;4486535;32;34166;-71
2022/04/14 10:27:16;;;;;;;5.05;2.50;;;;;;;19.76;19.82;100346.56;4484889;32;33964;-71
2022/04/14 10:29:44;;;;;;;5.05;2.85;;;;;;;20.27;20.66;100352.19;4486378;32;34244;-71
2022/04/14 10:32:12;;;;;;;4.62;3.00;;;;;;;21.22;19.62;100351.97;4484868;32;33656;-70
2022/04/14 10:34:40;;;;;;;8.43;3.20;;;;;;;20.75;18.84;100340.12;4478309;32;34721;-71
2022/04/14 10:37:09;;;;;;;5.62;2.85;;;;;;;20.57;18.45;100332.72;4486279;32;34782;-71
2022/04/14 10:39:41;;;;;;;4.62;2.80;;;;;;;20.83;20.67;100336.69;4485058;32;33323;-71
2022/04/14 10:42:09;;;;;;;4.03;2.75;;;;;;;20.59;20.36;100325.00;4484828;32;34193;-71
2022/04/14 10:44:45;;;;;;;5.20;2.40;;;;;;;20.53;18.68;100332.47;4484850;32;34842;-71
2022/04/14 10:47:35;;;;;;;4.90;3.15;;;;;;;21.21;21.11;100327.44;4485839;32;34632;-72
2022/04/14 10:50:03;;;;;;;5.05;3.42;;;;;;;21.53;20.64;100334.00;4486060;32;33526;-72
2022/04/14 10:52:38;;;;;;;5.05;2.97;;;;;;;22.27;18.88;100329.06;4485734;32;34845;-71
2022/04/14 10:55:06;;;;;;;5.93;3.33;;;;;;;21.88;17.80;100332.44;4485947;32;34220;-68
2022/04/14 10:57:42;;;;;;;5.50;3.30;;;;;;;21.36;18.86;100326.31;4485623;32;34671;-70
2022/04/14 11:00:19;;;;;;;5.82;3.15;;;;;;;20.90;19.37;100322.50;4486100;32;33447;-70
2022/04/14 11:03:02;;;;;;;4.90;3.08;;;;;;;21.76;18.47;100332.16;4485882;32;34206;-70
2022/04/14 11:05:47;;;;;;;5.85;3.50;;;;;;;21.47;20.31;100328.59;4484320;32;34400;-69
2022/04/14 11:08:31;;;;;;;7.15;3.53;;;;;;;22.29;18.30;100326.81;4485493;32;34732;-69
2022/04/14 11:11:05;;;;;;;5.10;3.25;;;;;;;22.49;16.57;100319.94;4485731;32;33421;-69
2022/04/14 11:13:50;;;;;;;6.22;2.87;;;;;;;22.46;17.92;100325.28;4484836;32;33845;-69
2022/04/14 11:16:40;;;;;;;6.47;2.53;;;;;;;22.77;18.65;100321.75;4485511;32;35197;-69
2022/04/14 11:19:21;;;;;;;6.43;2.90;;;;;;;23.35;19.42;100320.75;4485953;32;34631;-69
2022/04/14 11:21:58;;;;;;;5.15;2.92;;;;;;;23.03;17.98;100311.66;4484902;32;34290;-70
2022/04/14 11:24:40;;;;;;;5.60;2.78;;;;;;;22.65;16.55;100320.38;4485912;32;34088;-69
2022/04/14 11:27:22;;;;;;;5.03;2.70;;;;;;;21.80;17.40;100308.31;4485705;32;34188;-70
2022/04/14 11:29:57;;;;;;;4.12;2.72;;;;;;;22.45;17.72;100301.53;4485977;32;33980;-70
2022/04/14 11:32:35;;;;;;;7.72;2.75;;;;;;;23.08;16.57;100302.41;4485454;32;34292;-70
2022/04/14 11:35:30;;;;;;;5.60;2.75;;;;;;;22.29;16.48;100295.59;4476784;31;34013;-69
2022/04/14 11:37:57;;;;;;;4.45;2.62;;;;;;;21.22;21.51;100294.00;4468630;32;34280;-69